Hovedside
METAR-TAF:

METAR-TAF

Lufthavner :

Bahrain, Bahrain

breddegrad: 26-16N, lengdegrad: 050-39E, høyde over havet: 2 m

Gjeldene værobservasjon

Denne rapporten ble laget for 16 minutter siden, klokken 04:00 UTC
Vind 7 kt fra Nordvest
Temperatur 30°C
Luftfuktighet 62%
Trykk 1014 hPa
Sikt 10 km eller mer
Få skyer i en høyde av 3000 ft

METAR: OBBI 240400Z 32007KT 9999 FEW030 30/22 Q1014 NOSIG

Tid: 07:16 (04:16 UTC)

Varsel

Denne rapporten ble laget for 5 timer og 16 minutter siden, klokken 23:00 UTC
Varsel gyldig fra 24. klokken 00 UTC til 25. klokken 06 UTC
Vind 8 kt fra Nord
Sikt: 8000 m
Få skyer i en høyde av 3000 ft

TAF: OBBI 232300Z 2400/2506 35008KT 8000 FEW030

Værobservasjoner og værvarsel for over 4000 flyplasser (METAR- og TAF-rapporter).

Tilgjengelige stasjoner er representert av de røde og gule prikkene på kartet.

Hold musepekeren over prikken for å se navnet på stasjonen.

Klikk så for å se værobservasjoner og -varsler.

For å forandre kartet kan du klikke på den grønne knappen med svart kryss for å zoome inn, på den grønne knappen med strek for å zoome ut, eller på de grønne pilene for å se tilstøtende kart.


METAR-TAF: